Time;durP1;ratioP1;P1;durP2;ratioP2;P2;SDS_P1;SDS_P2;PMS_P1;PMS_P2;Temp;Humidity;BMP_temperature;BMP_pressure;BME280_temperature;BME280_humidity;BME280_pressure;Samples;Min_cycle;Max_cycle;Signal;HPM_P1;HPM_P2
2021/12/21 00:01:11;;;;;;;;;;;;;;;;;;111960;1269;7923;-81
2021/12/21 00:03:42;;;;;;;;;;;;;;;;;;111946;1268;9153;-80
2021/12/21 00:06:12;;;;;;;;;;;;;;;;;;111947;1269;10006;-80
2021/12/21 00:08:41;;;;;;;;;;;;;;;;;;111882;1269;8342;-80
2021/12/21 00:11:15;;;;;;;;;;;;;;;;;;112032;1270;9677;-82
2021/12/21 00:17:07;;;;;;;;;;;;;;;;;;111567;1268;8793;-82
2021/12/21 00:19:55;;;;;;;;;;;;;;;;;;112010;1269;7988;-82
2021/12/21 00:23:09;;;;;;;;;;;;;;;;;;112036;1268;8417;-81
2021/12/21 00:25:23;;;;;;;;;;;;;;;;;;112000;1268;7995;-79
2021/12/21 00:27:52;;;;;;;;;;;;;;;;;;111972;1266;9690;-80
2021/12/21 00:30:23;;;;;;;;;;;;;;;;;;111961;1269;9696;-80
2021/12/21 00:32:51;;;;;;;;;;;;;;;;;;111921;1269;7949;-80
2021/12/21 00:35:22;;;;;;;;;;;;;;;;;;111989;1267;9714;-80
2021/12/21 00:37:50;;;;;;;;;;;;;;;;;;111961;1269;8759;-80
2021/12/21 00:40:22;;;;;;;;;;;;;;;;;;111944;1269;8014;-79
2021/12/21 00:42:50;;;;;;;;;;;;;;;;;;111934;1269;9707;-80
2021/12/21 00:45:21;;;;;;;;;;;;;;;;;;111924;1270;9994;-82
2021/12/21 00:47:50;;;;;;;;;;;;;;;;;;111814;1269;8369;-80
2021/12/21 00:50:21;;;;;;;;;;;;;;;;;;111992;1269;9758;-80
2021/12/21 00:52:51;;;;;;;;;;;;;;;;;;111993;1268;9678;-81
2021/12/21 00:55:22;;;;;;;;;;;;;;;;;;111947;1269;8014;-80
2021/12/21 00:57:55;;;;;;;;;;;;;;;;;;111984;1268;9805;-82
2021/12/21 01:00:29;;;;;;;;;;;;;;;;;;111954;1269;9681;-82
2021/12/21 01:03:03;;;;;;;;;;;;;;;;;;111976;1268;9681;-84
2021/12/21 01:05:44;;;;;;;;;;;;;;;;;;111676;1270;8367;-82
2021/12/21 01:08:20;;;;;;;;;;;;;;;;;;112005;1269;8777;-82
2021/12/21 01:13:41;;;;;;;;;;;;;;;;;;112014;1269;9681;-83
2021/12/21 01:16:19;;;;;;;;;;;;;;;;;;111798;1270;8726;-83
2021/12/21 01:21:34;;;;;;;;;;;;;;;;;;111943;1270;8001;-81
2021/12/21 01:27:16;;;;;;;;;;;;;;;;;;111937;1269;9744;-82
2021/12/21 01:29:58;;;;;;;;;;;;;;;;;;111037;1271;9690;-82
2021/12/21 01:32:56;;;;;;;;;;;;;;;;;;111821;1269;7999;-82
2021/12/21 01:35:36;;;;;;;;;;;;;;;;;;111914;1270;9702;-81
2021/12/21 01:38:51;;;;;;;;;;;;;;;;;;111860;1270;8418;-83
2021/12/21 01:41:22;;;;;;;;;;;;;;;;;;111939;1268;8980;-84
2021/12/21 01:44:12;;;;;;;;;;;;;;;;;;111972;1269;8739;-82
2021/12/21 01:49:39;;;;;;;;;;;;;;;;;;111982;1269;9763;-82
2021/12/21 01:52:10;;;;;;;;;;;;;;;;;;111986;1269;9837;-83
2021/12/21 01:54:38;;;;;;;;;;;;;;;;;;111954;1269;9919;-82
2021/12/21 01:57:08;;;;;;;;;;;;;;;;;;111957;1269;8759;-84
2021/12/21 01:59:39;;;;;;;;;;;;;;;;;;111845;1269;7989;-82
2021/12/21 02:02:14;;;;;;;;;;;;;;;;;;111989;1269;8421;-83
2021/12/21 02:04:43;;;;;;;;;;;;;;;;;;111944;1269;7965;-81
2021/12/21 02:07:12;;;;;;;;;;;;;;;;;;111895;1268;9549;-82
2021/12/21 02:09:43;;;;;;;;;;;;;;;;;;111939;1270;8776;-82
2021/12/21 02:12:14;;;;;;;;;;;;;;;;;;111664;1270;7961;-83
2021/12/21 02:14:43;;;;;;;;;;;;;;;;;;111920;1269;9848;-84
2021/12/21 02:20:19;;;;;;;;;;;;;;;;;;111963;1269;8758;-82
2021/12/21 02:23:07;;;;;;;;;;;;;;;;;;111931;1269;8775;-82
2021/12/21 02:25:55;;;;;;;;;;;;;;;;;;111969;1269;9776;-83
2021/12/21 02:30:57;;;;;;;;;;;;;;;;;;111952;1269;8242;-82
2021/12/21 02:33:26;;;;;;;;;;;;;;;;;;111995;1266;8929;-82
2021/12/21 02:36:00;;;;;;;;;;;;;;;;;;111969;1268;9687;-83
2021/12/21 02:38:34;;;;;;;;;;;;;;;;;;111871;1269;9679;-82
2021/12/21 02:41:02;;;;;;;;;;;;;;;;;;111950;1269;7971;-81
2021/12/21 02:43:32;;;;;;;;;;;;;;;;;;111958;1269;9027;-83
2021/12/21 02:46:00;;;;;;;;;;;;;;;;;;111779;1270;8357;-82
2021/12/21 02:48:28;;;;;;;;;;;;;;;;;;111928;1268;8941;-82
2021/12/21 02:50:56;;;;;;;;;;;;;;;;;;111932;1270;8045;-77
2021/12/21 02:53:33;;;;;;;;;;;;;;;;;;112000;1269;7952;-77
2021/12/21 02:56:07;;;;;;;;;;;;;;;;;;111994;1268;8934;-76
2021/12/21 02:58:43;;;;;;;;;;;;;;;;;;112029;1269;8809;-75
2021/12/21 03:01:18;;;;;;;;;;;;;;;;;;111907;1270;9649;-76
2021/12/21 03:03:53;;;;;;;;;;;;;;;;;;112004;1269;8005;-76
2021/12/21 03:14:57;;;;;;;;;;;;;;;;;;111982;1269;8008;-76
2021/12/21 03:17:33;;;;;;;;;;;;;;;;;;111984;1268;8942;-75
2021/12/21 03:20:09;;;;;;;;;;;;;;;;;;111977;1269;9684;-76
2021/12/21 03:22:55;;;;;;;;;;;;;;;;;;111978;1269;8756;-76
2021/12/21 03:25:23;;;;;;;;;;;;;;;;;;111971;1269;8324;-77
2021/12/21 03:28:01;;;;;;;;;;;;;;;;;;111995;1268;9688;-76
2021/12/21 03:30:32;;;;;;;;;;;;;;;;;;111998;1268;9681;-76
2021/12/21 03:33:03;;;;;;;;;;;;;;;;;;109595;1265;8352;-75
2021/12/21 03:35:40;;;;;;;;;;;;;;;;;;111993;1269;9687;-76
2021/12/21 03:38:34;;;;;;;;;;;;;;;;;;111987;1270;8174;-78
2021/12/21 03:41:14;;;;;;;;;;;;;;;;;;111989;1269;9733;-76
2021/12/21 03:43:47;;;;;;;;;;;;;;;;;;112040;1269;8779;-77
2021/12/21 03:46:23;;;;;;;;;;;;;;;;;;112007;1269;7965;-77
2021/12/21 03:49:08;;;;;;;;;;;;;;;;;;111980;1270;8972;-75
2021/12/21 03:51:44;;;;;;;;;;;;;;;;;;112005;1268;9681;-76
2021/12/21 03:54:18;;;;;;;;;;;;;;;;;;111975;1269;9703;-76
2021/12/21 03:56:54;;;;;;;;;;;;;;;;;;111943;1269;9507;-75
2021/12/21 03:59:32;;;;;;;;;;;;;;;;;;111952;1268;9681;-77
2021/12/21 04:02:11;;;;;;;;;;;;;;;;;;111952;1266;9728;-76
2021/12/21 04:04:52;;;;;;;;;;;;;;;;;;111958;1269;7993;-77
2021/12/21 04:07:28;;;;;;;;;;;;;;;;;;111964;1269;8789;-76
2021/12/21 04:10:04;;;;;;;;;;;;;;;;;;111949;1269;8945;-76
2021/12/21 04:12:38;;;;;;;;;;;;;;;;;;111955;1269;8764;-76
2021/12/21 04:15:15;;;;;;;;;;;;;;;;;;111989;1269;8763;-76
2021/12/21 04:17:47;;;;;;;;;;;;;;;;;;111987;1267;8774;-76
2021/12/21 04:20:23;;;;;;;;;;;;;;;;;;112001;1268;10134;-77
2021/12/21 04:23:03;;;;;;;;;;;;;;;;;;111997;1268;7994;-77
2021/12/21 04:25:39;;;;;;;;;;;;;;;;;;111975;1270;8874;-76
2021/12/21 04:28:13;;;;;;;;;;;;;;;;;;111984;1268;8746;-76
2021/12/21 04:30:49;;;;;;;;;;;;;;;;;;111996;1269;9678;-76
2021/12/21 04:33:20;;;;;;;;;;;;;;;;;;111998;1269;8764;-77
2021/12/21 04:35:54;;;;;;;;;;;;;;;;;;111985;1266;8936;-76
2021/12/21 04:38:32;;;;;;;;;;;;;;;;;;111989;1269;8962;-76
2021/12/21 04:41:23;;;;;;;;;;;;;;;;;;112002;1269;8951;-75
2021/12/21 04:44:00;;;;;;;;;;;;;;;;;;111971;1269;8756;-77
2021/12/21 04:46:31;;;;;;;;;;;;;;;;;;111982;1269;8098;-76
2021/12/21 04:49:05;;;;;;;;;;;;;;;;;;111952;1265;8914;-76
2021/12/21 04:51:37;;;;;;;;;;;;;;;;;;111950;1270;9698;-77
2021/12/21 04:54:08;;;;;;;;;;;;;;;;;;111968;1267;8785;-76
2021/12/21 04:56:44;;;;;;;;;;;;;;;;;;111968;1267;9354;-79
2021/12/21 04:59:19;;;;;;;;;;;;;;;;;;111971;1269;9688;-78
2021/12/21 05:01:55;;;;;;;;;;;;;;;;;;111878;1269;9687;-76
2021/12/21 05:04:35;;;;;;;;;;;;;;;;;;111969;1268;9730;-77
2021/12/21 05:07:17;;;;;;;;;;;;;;;;;;111962;1269;8785;-76
2021/12/21 05:10:01;;;;;;;;;;;;;;;;;;112001;1269;9759;-77
2021/12/21 05:12:40;;;;;;;;;;;;;;;;;;111966;1269;9062;-77
2021/12/21 05:15:17;;;;;;;;;;;;;;;;;;111961;1270;8005;-77
2021/12/21 05:17:56;;;;;;;;;;;;;;;;;;112084;1267;9684;-76
2021/12/21 05:20:31;;;;;;;;;;;;;;;;;;112126;1268;8774;-75
2021/12/21 05:23:06;;;;;;;;;;;;;;;;;;112057;1268;9694;-75
2021/12/21 05:25:43;;;;;;;;;;;;;;;;;;111985;1269;8069;-77
2021/12/21 05:28:15;;;;;;;;;;;;;;;;;;112010;1269;8776;-77
2021/12/21 05:30:50;;;;;;;;;;;;;;;;;;111985;1269;7999;-77
2021/12/21 05:33:26;;;;;;;;;;;;;;;;;;111989;1265;9679;-77
2021/12/21 05:36:00;;;;;;;;;;;;;;;;;;111961;1269;9391;-76
2021/12/21 05:38:39;;;;;;;;;;;;;;;;;;111945;1270;8051;-76
2021/12/21 05:41:24;;;;;;;;;;;;;;;;;;111982;1269;9754;-76
2021/12/21 05:43:52;;;;;;;;;;;;;;;;;;111950;1269;8051;-76
2021/12/21 05:46:24;;;;;;;;;;;;;;;;;;111995;1268;9707;-77
2021/12/21 05:49:00;;;;;;;;;;;;;;;;;;111948;1269;9714;-76
2021/12/21 05:51:34;;;;;;;;;;;;;;;;;;111976;1269;8776;-78
2021/12/21 05:54:08;;;;;;;;;;;;;;;;;;111941;1269;9713;-76
2021/12/21 05:56:44;;;;;;;;;;;;;;;;;;111991;1267;9684;-77
2021/12/21 05:59:21;;;;;;;;;;;;;;;;;;111941;1269;9684;-77
2021/12/21 06:01:57;;;;;;;;;;;;;;;;;;111948;1269;9687;-77
2021/12/21 06:04:31;;;;;;;;;;;;;;;;;;111948;1269;9744;-77
2021/12/21 06:07:10;;;;;;;;;;;;;;;;;;111984;1268;9695;-79
2021/12/21 06:09:50;;;;;;;;;;;;;;;;;;111987;1268;8766;-78
2021/12/21 06:15:27;;;;;;;;;;;;;;;;;;112000;1269;9703;-78
2021/12/21 06:24:38;;;;;;;;;;;;;;;;;;111998;1268;8799;-77
2021/12/21 06:26:59;;;;;;;;;;;;;;;;;;111965;1269;8025;-77
2021/12/21 06:29:32;;;;;;;;;;;;;;;;;;111997;1268;9967;-76
2021/12/21 06:32:04;;;;;;;;;;;;;;;;;;111947;1269;8486;-75
2021/12/21 06:34:38;;;;;;;;;;;;;;;;;;111979;1269;8182;-77
2021/12/21 06:37:12;;;;;;;;;;;;;;;;;;111969;1267;8488;-76
2021/12/21 06:39:50;;;;;;;;;;;;;;;;;;111931;1267;9741;-76
2021/12/21 06:42:27;;;;;;;;;;;;;;;;;;111978;1268;9714;-76
2021/12/21 06:45:10;;;;;;;;;;;;;;;;;;111958;1268;8798;-77
2021/12/21 06:53:40;;;;;;;;;;;;;;;;;;111946;1269;8351;-78
2021/12/21 06:56:14;;;;;;;;;;;;;;;;;;111969;1268;7967;-76
2021/12/21 06:58:47;;;;;;;;;;;;;;;;;;111979;1269;8440;-78
2021/12/21 07:01:19;;;;;;;;;;;;;;;;;;111992;1269;9677;-76
2021/12/21 07:03:53;;;;;;;;;;;;;;;;;;111893;1268;9420;-77
2021/12/21 07:06:23;;;;;;;;;;;;;;;;;;111989;1269;9677;-76
2021/12/21 07:09:21;;;;;;;;;;;;;;;;;;111969;1268;9697;-78
2021/12/21 07:20:29;;;;;;;;;;;;;;;;;;111943;1269;9704;-77
2021/12/21 07:23:00;;;;;;;;;;;;;;;;;;111930;1268;9697;-75
2021/12/21 07:25:29;;;;;;;;;;;;;;;;;;111978;1266;9146;-75
2021/12/21 07:27:58;;;;;;;;;;;;;;;;;;111948;1268;8923;-77
2021/12/21 07:30:33;;;;;;;;;;;;;;;;;;111920;1268;8350;-75
2021/12/21 07:33:11;;;;;;;;;;;;;;;;;;111938;1268;8904;-81
2021/12/21 07:38:32;;;;;;;;;;;;;;;;;;111825;1270;9674;-76
2021/12/21 07:41:01;;;;;;;;;;;;;;;;;;111947;1270;8031;-75
2021/12/21 07:43:34;;;;;;;;;;;;;;;;;;111914;1268;8764;-75
2021/12/21 07:46:08;;;;;;;;;;;;;;;;;;111904;1269;9693;-78
2021/12/21 07:48:37;;;;;;;;;;;;;;;;;;111927;1268;9170;-76
2021/12/21 07:51:09;;;;;;;;;;;;;;;;;;112050;1269;8796;-77
2021/12/21 07:53:42;;;;;;;;;;;;;;;;;;112028;1267;9704;-76
2021/12/21 07:56:16;;;;;;;;;;;;;;;;;;111954;1270;9493;-79
2021/12/21 07:58:45;;;;;;;;;;;;;;;;;;111964;1269;9680;-77
2021/12/21 08:01:16;;;;;;;;;;;;;;;;;;111982;1269;7991;-77
2021/12/21 08:03:47;;;;;;;;;;;;;;;;;;111993;1265;9694;-75
2021/12/21 08:06:18;;;;;;;;;;;;;;;;;;111989;1268;8422;-76
2021/12/21 08:08:48;;;;;;;;;;;;;;;;;;111988;1267;7969;-77
2021/12/21 08:14:05;;;;;;;;;;;;;;;;;;111968;1268;9698;-77
2021/12/21 08:16:34;;;;;;;;;;;;;;;;;;111943;1265;9695;-77
2021/12/21 08:19:02;;;;;;;;;;;;;;;;;;112039;1267;8350;-78
2021/12/21 08:21:31;;;;;;;;;;;;;;;;;;112042;1265;8764;-77
2021/12/21 08:24:01;;;;;;;;;;;;;;;;;;111977;1267;9693;-76
2021/12/21 08:26:33;;;;;;;;;;;;;;;;;;112008;1269;7999;-78
2021/12/21 08:29:12;;;;;;;;;;;;;;;;;;111990;1269;8774;-79
2021/12/21 08:31:46;;;;;;;;;;;;;;;;;;111977;1267;8000;-79
2021/12/21 08:34:15;;;;;;;;;;;;;;;;;;111949;1269;8899;-77
2021/12/21 08:36:43;;;;;;;;;;;;;;;;;;112048;1268;9693;-76
2021/12/21 08:39:16;;;;;;;;;;;;;;;;;;111960;1267;8361;-77
2021/12/21 08:41:51;;;;;;;;;;;;;;;;;;111954;1269;8766;-80
2021/12/21 08:44:22;;;;;;;;;;;;;;;;;;111913;1269;9787;-76
2021/12/21 08:46:57;;;;;;;;;;;;;;;;;;111926;1270;8012;-77
2021/12/21 08:49:26;;;;;;;;;;;;;;;;;;111964;1268;9545;-77
2021/12/21 08:51:55;;;;;;;;;;;;;;;;;;111948;1269;9683;-78
2021/12/21 08:54:23;;;;;;;;;;;;;;;;;;111912;1268;7925;-77
2021/12/21 08:56:51;;;;;;;;;;;;;;;;;;111895;1269;8760;-78
2021/12/21 08:59:19;;;;;;;;;;;;;;;;;;111879;1270;9694;-76
2021/12/21 09:01:48;;;;;;;;;;;;;;;;;;112069;1268;8044;-77
2021/12/21 09:04:18;;;;;;;;;;;;;;;;;;111980;1267;7976;-76
2021/12/21 09:06:45;;;;;;;;;;;;;;;;;;111996;1266;9700;-75
2021/12/21 09:09:20;;;;;;;;;;;;;;;;;;111957;1268;9691;-79
2021/12/21 09:11:51;;;;;;;;;;;;;;;;;;111937;1269;8777;-79
2021/12/21 09:14:24;;;;;;;;;;;;;;;;;;112004;1269;8749;-76
2021/12/21 09:16:52;;;;;;;;;;;;;;;;;;111988;1269;8370;-75
2021/12/21 09:19:20;;;;;;;;;;;;;;;;;;112059;1268;9684;-78
2021/12/21 09:22:07;;;;;;;;;;;;;;;;;;112088;1268;8351;-77
2021/12/21 09:24:44;;;;;;;;;;;;;;;;;;111934;1269;7983;-78
2021/12/21 09:27:16;;;;;;;;;;;;;;;;;;111922;1267;8823;-78
2021/12/21 09:29:54;;;;;;;;;;;;;;;;;;111933;1270;8920;-77
2021/12/21 09:32:22;;;;;;;;;;;;;;;;;;111889;1270;9697;-76
2021/12/21 09:34:50;;;;;;;;;;;;;;;;;;111980;1269;8537;-77
2021/12/21 09:37:20;;;;;;;;;;;;;;;;;;111984;1268;8948;-76
2021/12/21 09:39:55;;;;;;;;;;;;;;;;;;111986;1267;8776;-76
2021/12/21 09:42:28;;;;;;;;;;;;;;;;;;111953;1269;9691;-76
2021/12/21 09:44:59;;;;;;;;;;;;;;;;;;111956;1269;8744;-75
2021/12/21 09:47:33;;;;;;;;;;;;;;;;;;111968;1269;8027;-76
2021/12/21 09:50:04;;;;;;;;;;;;;;;;;;112041;1268;8078;-75
2021/12/21 09:52:33;;;;;;;;;;;;;;;;;;111986;1270;9698;-76
2021/12/21 09:55:08;;;;;;;;;;;;;;;;;;111933;1269;9800;-78
2021/12/21 09:57:39;;;;;;;;;;;;;;;;;;111983;1268;9697;-77
2021/12/21 10:00:16;;;;;;;;;;;;;;;;;;111994;1270;8076;-76
2021/12/21 10:02:48;;;;;;;;;;;;;;;;;;111868;1270;8758;-75
2021/12/21 10:05:24;;;;;;;;;;;;;;;;;;111949;1268;9673;-76
2021/12/21 10:08:04;;;;;;;;;;;;;;;;;;111970;1269;8756;-74
2021/12/21 10:10:39;;;;;;;;;;;;;;;;;;111974;1268;8771;-75
2021/12/21 10:13:27;;;;;;;;;;;;;;;;;;111978;1265;9704;-77
2021/12/21 10:16:04;;;;;;;;;;;;;;;;;;111984;1269;8325;-78
2021/12/21 10:18:39;;;;;;;;;;;;;;;;;;111970;1267;9678;-76
2021/12/21 10:21:17;;;;;;;;;;;;;;;;;;111910;1268;8075;-77
2021/12/21 10:23:54;;;;;;;;;;;;;;;;;;111913;1270;8005;-79
2021/12/21 10:26:29;;;;;;;;;;;;;;;;;;111937;1268;9681;-79
2021/12/21 10:29:08;;;;;;;;;;;;;;;;;;111895;1269;8353;-77
2021/12/21 10:31:45;;;;;;;;;;;;;;;;;;111900;1270;8918;-77
2021/12/21 10:34:22;;;;;;;;;;;;;;;;;;111928;1269;7994;-78
2021/12/21 10:36:52;;;;;;;;;;;;;;;;;;111947;1269;9152;-76
2021/12/21 10:39:27;;;;;;;;;;;;;;;;;;111906;1268;8861;-77
2021/12/21 10:42:02;;;;;;;;;;;;;;;;;;111940;1270;9687;-79
2021/12/21 10:44:47;;;;;;;;;;;;;;;;;;111940;1270;8779;-77
2021/12/21 10:47:21;;;;;;;;;;;;;;;;;;111865;1269;8916;-77
2021/12/21 10:49:52;;;;;;;;;;;;;;;;;;111975;1269;8741;-76
2021/12/21 10:52:20;;;;;;;;;;;;;;;;;;111893;1269;8781;-78
2021/12/21 10:54:52;;;;;;;;;;;;;;;;;;111974;1269;8903;-80
2021/12/21 10:57:34;;;;;;;;;;;;;;;;;;112003;1268;9279;-78
2021/12/21 11:00:13;;;;;;;;;;;;;;;;;;111992;1267;7996;-79
2021/12/21 11:02:43;;;;;;;;;;;;;;;;;;112025;1268;9617;-77
2021/12/21 11:05:16;;;;;;;;;;;;;;;;;;111999;1268;7973;-79
2021/12/21 11:08:08;;;;;;;;;;;;;;;;;;112029;1267;8746;-79
2021/12/21 11:10:51;;;;;;;;;;;;;;;;;;111810;1269;7985;-77
2021/12/21 11:13:32;;;;;;;;;;;;;;;;;;111969;1269;9710;-77
2021/12/21 11:16:16;;;;;;;;;;;;;;;;;;;;;
2021/12/21 11:18:44;;;;;;;;;;;;;;;;;;111987;1269;8072;-82
2021/12/21 11:21:13;;;;;;;;;;;;;;;;;;112007;1268;8953;-77
2021/12/21 11:23:41;;;;;;;;;;;;;;;;;;111964;1267;8906;-77
2021/12/21 11:26:09;;;;;;;;;;;;;;;;;;111605;1269;8436;-80
2021/12/21 11:28:38;;;;;;;;;;;;;;;;;;111602;1269;8368;-79
2021/12/21 11:31:16;;;;;;;;;;;;;;;;;;109768;1271;2805784;-81
2021/12/21 11:33:46;;;;;;;;;;;;;;;;;;112013;1269;9024;-79
2021/12/21 11:39:13;;;;;;;;;;;;;;;;;;111964;1269;7999;-80
2021/12/21 11:41:51;;;;;;;;;;;;;;;;;;111988;1268;9681;-78
2021/12/21 11:44:30;;;;;;;;;;;;;;;;;;112032;1268;8021;-78
2021/12/21 11:47:08;;;;;;;;;;;;;;;;;;111972;1269;8774;-77
2021/12/21 11:49:39;;;;;;;;;;;;;;;;;;112036;1269;8774;-79
2021/12/21 11:52:16;;;;;;;;;;;;;;;;;;112031;1269;9680;-78
2021/12/21 11:54:47;;;;;;;;;;;;;;;;;;112012;1269;8794;-78
2021/12/21 11:57:34;;;;;;;;;;;;;;;;;;112008;1269;9680;-77
2021/12/21 12:00:14;;;;;;;;;;;;;;;;;;112001;1269;9681;-79
2021/12/21 12:02:44;;;;;;;;;;;;;;;;;;111979;1269;9691;-77
2021/12/21 12:05:24;;;;;;;;;;;;;;;;;;111950;1269;7970;-76
2021/12/21 12:08:21;;;;;;;;;;;;;;;;;;111994;1267;9103;-79
2021/12/21 12:10:59;;;;;;;;;;;;;;;;;;111746;1268;9694;-77
2021/12/21 12:13:37;;;;;;;;;;;;;;;;;;111970;1267;9684;-78
2021/12/21 12:16:11;;;;;;;;;;;;;;;;;;111978;1269;8062;-79
2021/12/21 12:18:44;;;;;;;;;;;;;;;;;;111936;1269;9687;-78
2021/12/21 12:21:31;;;;;;;;;;;;;;;;;;111486;1271;8005;-79
2021/12/21 12:24:01;;;;;;;;;;;;;;;;;;111924;1268;9683;-77
2021/12/21 12:26:38;;;;;;;;;;;;;;;;;;111870;1268;9690;-81
2021/12/21 12:29:14;;;;;;;;;;;;;;;;;;111986;1268;8408;-80
2021/12/21 12:31:56;;;;;;;;;;;;;;;;;;111703;1270;8813;-81
2021/12/21 12:34:29;;;;;;;;;;;;;;;;;;111842;1270;8030;-80
2021/12/21 12:36:58;;;;;;;;;;;;;;;;;;112001;1270;9787;-81
2021/12/21 12:39:46;;;;;;;;;;;;;;;;;;111955;1270;7992;-81
2021/12/21 12:42:24;;;;;;;;;;;;;;;;;;111945;1269;8810;-80
2021/12/21 12:45:18;;;;;;;;;;;;;;;;;;111959;1268;9700;-80
2021/12/21 12:47:52;;;;;;;;;;;;;;;;;;111979;1269;8991;-80
2021/12/21 12:50:24;;;;;;;;;;;;;;;;;;111894;1269;9039;-81
2021/12/21 12:52:57;;;;;;;;;;;;;;;;;;111960;1268;8745;-79
2021/12/21 12:55:35;;;;;;;;;;;;;;;;;;111668;1270;8515;-80
2021/12/21 12:58:24;;;;;;;;;;;;;;;;;;112000;1268;8469;-80
2021/12/21 13:01:19;;;;;;;;;;;;;;;;;;111958;1269;8949;-81
2021/12/21 13:03:47;;;;;;;;;;;;;;;;;;111969;1269;9716;-83
2021/12/21 13:06:22;;;;;;;;;;;;;;;;;;111882;1267;7969;-83
2021/12/21 13:08:51;;;;;;;;;;;;;;;;;;112003;1268;9700;-80
2021/12/21 13:11:25;;;;;;;;;;;;;;;;;;111794;1269;7964;-79
2021/12/21 13:13:54;;;;;;;;;;;;;;;;;;111905;1268;10027;-77
2021/12/21 13:16:26;;;;;;;;;;;;;;;;;;111955;1267;8372;-82
2021/12/21 13:18:58;;;;;;;;;;;;;;;;;;111767;1269;8059;-82
2021/12/21 13:21:36;;;;;;;;;;;;;;;;;;111657;1270;8005;-79
2021/12/21 13:24:19;;;;;;;;;;;;;;;;;;111987;1269;8810;-81
2021/12/21 13:26:52;;;;;;;;;;;;;;;;;;111635;1269;8350;-79
2021/12/21 13:29:26;;;;;;;;;;;;;;;;;;111978;1270;9701;-77
2021/12/21 13:31:56;;;;;;;;;;;;;;;;;;111656;1270;9309;-80
2021/12/21 13:34:26;;;;;;;;;;;;;;;;;;111870;1270;8002;-80
2021/12/21 13:36:57;;;;;;;;;;;;;;;;;;111831;1268;8930;-84
2021/12/21 13:39:35;;;;;;;;;;;;;;;;;;111966;1268;8747;-82
2021/12/21 13:42:03;;;;;;;;;;;;;;;;;;111856;1270;9684;-84
2021/12/21 13:44:33;;;;;;;;;;;;;;;;;;111911;1268;8977;-84
2021/12/21 13:47:15;;;;;;;;;;;;;;;;;;111646;1270;8779;-83
2021/12/21 13:50:08;;;;;;;;;;;;;;;;;;111815;1270;8396;-82
2021/12/21 13:52:45;;;;;;;;;;;;;;;;;;111931;1269;7968;-84
2021/12/21 13:55:36;;;;;;;;;;;;;;;;;;111875;1270;9691;-82
2021/12/21 13:58:07;;;;;;;;;;;;;;;;;;111883;1270;8932;-82
2021/12/21 14:00:40;;;;;;;;;;;;;;;;;;111776;1269;8781;-79
2021/12/21 14:03:20;;;;;;;;;;;;;;;;;;111965;1265;9681;-80
2021/12/21 14:05:56;;;;;;;;;;;;;;;;;;111964;1269;9523;-79
2021/12/21 14:08:32;;;;;;;;;;;;;;;;;;111960;1266;8527;-81
2021/12/21 14:11:06;;;;;;;;;;;;;;;;;;111804;1269;8773;-82
2021/12/21 14:13:44;;;;;;;;;;;;;;;;;;111918;1269;8953;-82
2021/12/21 14:16:29;;;;;;;;;;;;;;;;;;111753;1268;9107;-85
2021/12/21 14:19:02;;;;;;;;;;;;;;;;;;111852;1270;9687;-84
2021/12/21 14:21:38;;;;;;;;;;;;;;;;;;111964;1270;9691;-78
2021/12/21 14:24:15;;;;;;;;;;;;;;;;;;112072;1268;7987;-81
2021/12/21 14:27:00;;;;;;;;;;;;;;;;;;112066;1268;8936;-85
2021/12/21 14:29:30;;;;;;;;;;;;;;;;;;111872;1270;9681;-83
2021/12/21 14:32:04;;;;;;;;;;;;;;;;;;111978;1269;7990;-84
2021/12/21 14:34:37;;;;;;;;;;;;;;;;;;111961;1269;9693;-77
2021/12/21 14:40:47;;;;;;;;;;;;;;;;;;111967;1268;9690;-77
2021/12/21 14:43:30;;;;;;;;;;;;;;;;;;111859;1270;8864;-80
2021/12/21 14:46:02;;;;;;;;;;;;;;;;;;111595;1271;9765;-78
2021/12/21 14:48:38;;;;;;;;;;;;;;;;;;111862;1269;8959;-85
2021/12/21 14:51:10;;;;;;;;;;;;;;;;;;111729;1271;8932;-80
2021/12/21 14:53:47;;;;;;;;;;;;;;;;;;111804;1271;8424;-86
2021/12/21 14:56:26;;;;;;;;;;;;;;;;;;111356;1271;8037;-78
2021/12/21 14:59:06;;;;;;;;;;;;;;;;;;111830;1271;8077;-80
2021/12/21 15:01:39;;;;;;;;;;;;;;;;;;111796;1271;9684;-78
2021/12/21 15:04:20;;;;;;;;;;;;;;;;;;111760;1269;8033;-83
2021/12/21 15:06:57;;;;;;;;;;;;;;;;;;111936;1268;7973;-80
2021/12/21 15:09:34;;;;;;;;;;;;;;;;;;111409;1271;9702;-83
2021/12/21 15:12:20;;;;;;;;;;;;;;;;;;111959;1271;8416;-84
2021/12/21 15:14:50;;;;;;;;;;;;;;;;;;111356;1271;8803;-83
2021/12/21 15:17:18;;;;;;;;;;;;;;;;;;111600;1271;9684;-82
2021/12/21 15:19:55;;;;;;;;;;;;;;;;;;111804;1270;9681;-83
2021/12/21 15:22:33;;;;;;;;;;;;;;;;;;111413;1271;8373;-79
2021/12/21 15:25:10;;;;;;;;;;;;;;;;;;111434;1271;9724;-81
2021/12/21 15:27:43;;;;;;;;;;;;;;;;;;111830;1271;8012;-83
2021/12/21 15:30:15;;;;;;;;;;;;;;;;;;111903;1270;9684;-81
2021/12/21 15:32:56;;;;;;;;;;;;;;;;;;111433;1270;8096;-84
2021/12/21 15:35:31;;;;;;;;;;;;;;;;;;111801;1268;8983;-82
2021/12/21 15:38:00;;;;;;;;;;;;;;;;;;111585;1270;8434;-82
2021/12/21 15:40:31;;;;;;;;;;;;;;;;;;111870;1268;9707;-78
2021/12/21 15:43:07;;;;;;;;;;;;;;;;;;111955;1267;9495;-83
2021/12/21 15:45:41;;;;;;;;;;;;;;;;;;111781;1270;9782;-80
2021/12/21 15:48:09;;;;;;;;;;;;;;;;;;111979;1268;9697;-77
2021/12/21 15:50:40;;;;;;;;;;;;;;;;;;111996;1269;8950;-79
2021/12/21 15:53:16;;;;;;;;;;;;;;;;;;111981;1267;8774;-81
2021/12/21 15:55:48;;;;;;;;;;;;;;;;;;111923;1270;8516;-78
2021/12/21 15:58:16;;;;;;;;;;;;;;;;;;111961;1269;8808;-78
2021/12/21 16:00:44;;;;;;;;;;;;;;;;;;111961;1269;9687;-76
2021/12/21 16:03:20;;;;;;;;;;;;;;;;;;111966;1267;7929;-81
2021/12/21 16:05:52;;;;;;;;;;;;;;;;;;112011;1268;9681;-80
2021/12/21 16:08:24;;;;;;;;;;;;;;;;;;111984;1267;9697;-81
2021/12/21 16:10:58;;;;;;;;;;;;;;;;;;112030;1269;7953;-80
2021/12/21 16:13:37;;;;;;;;;;;;;;;;;;111960;1269;9684;-83
2021/12/21 16:16:05;;;;;;;;;;;;;;;;;;111681;1269;7972;-85
2021/12/21 16:18:33;;;;;;;;;;;;;;;;;;111846;1270;8861;-83
2021/12/21 16:21:10;;;;;;;;;;;;;;;;;;111671;1269;9782;-81
2021/12/21 16:23:55;;;;;;;;;;;;;;;;;;111984;1268;8009;-79
2021/12/21 16:26:27;;;;;;;;;;;;;;;;;;111924;1268;8953;-80
2021/12/21 16:29:07;;;;;;;;;;;;;;;;;;112005;1268;9678;-81
2021/12/21 16:31:35;;;;;;;;;;;;;;;;;;111959;1265;8071;-80
2021/12/21 16:34:03;;;;;;;;;;;;;;;;;;111869;1270;8798;-83
2021/12/21 16:36:37;;;;;;;;;;;;;;;;;;111968;1269;9703;-83
2021/12/21 16:39:11;;;;;;;;;;;;;;;;;;111604;1269;9697;-81
2021/12/21 16:41:48;;;;;;;;;;;;;;;;;;111678;1270;8874;-83
2021/12/21 16:44:20;;;;;;;;;;;;;;;;;;111934;1270;9685;-81
2021/12/21 16:46:56;;;;;;;;;;;;;;;;;;112019;1269;9681;-80
2021/12/21 16:49:24;;;;;;;;;;;;;;;;;;111956;1269;8720;-82
2021/12/21 16:51:53;;;;;;;;;;;;;;;;;;111707;1267;8718;-84
2021/12/21 16:54:22;;;;;;;;;;;;;;;;;;111906;1267;8898;-84
2021/12/21 16:56:50;;;;;;;;;;;;;;;;;;111634;1269;7954;-84
2021/12/21 16:59:22;;;;;;;;;;;;;;;;;;111793;1269;8765;-84
2021/12/21 17:01:52;;;;;;;;;;;;;;;;;;111963;1270;8055;-78
2021/12/21 17:04:23;;;;;;;;;;;;;;;;;;111914;1269;7971;-78
2021/12/21 17:06:57;;;;;;;;;;;;;;;;;;111991;1267;8794;-79
2021/12/21 17:09:34;;;;;;;;;;;;;;;;;;111991;1269;8047;-77
2021/12/21 17:12:05;;;;;;;;;;;;;;;;;;112011;1269;9695;-77
2021/12/21 17:14:36;;;;;;;;;;;;;;;;;;111969;1270;9687;-78
2021/12/21 17:17:04;;;;;;;;;;;;;;;;;;111991;1269;8913;-77
2021/12/21 17:19:36;;;;;;;;;;;;;;;;;;111988;1268;8359;-77
2021/12/21 17:22:04;;;;;;;;;;;;;;;;;;111887;1268;9694;-76
2021/12/21 17:24:32;;;;;;;;;;;;;;;;;;111886;1269;9696;-76
2021/12/21 17:27:00;;;;;;;;;;;;;;;;;;111939;1269;7993;-77
2021/12/21 17:29:31;;;;;;;;;;;;;;;;;;111935;1267;8767;-77
2021/12/21 17:31:58;;;;;;;;;;;;;;;;;;111977;1269;8772;-76
2021/12/21 17:34:28;;;;;;;;;;;;;;;;;;111943;1269;8903;-79
2021/12/21 17:36:57;;;;;;;;;;;;;;;;;;111903;1265;9678;-78
2021/12/21 17:39:25;;;;;;;;;;;;;;;;;;111934;1267;8059;-79
2021/12/21 17:41:54;;;;;;;;;;;;;;;;;;111939;1269;8932;-77
2021/12/21 17:44:25;;;;;;;;;;;;;;;;;;111881;1271;8955;-77
2021/12/21 17:47:01;;;;;;;;;;;;;;;;;;111990;1271;9687;-80
2021/12/21 17:49:33;;;;;;;;;;;;;;;;;;111890;1271;9681;-77
2021/12/21 17:52:01;;;;;;;;;;;;;;;;;;111930;1270;8853;-78
2021/12/21 17:54:30;;;;;;;;;;;;;;;;;;111902;1271;9684;-77
2021/12/21 17:56:58;;;;;;;;;;;;;;;;;;111926;1269;8023;-78
2021/12/21 17:59:26;;;;;;;;;;;;;;;;;;111693;1271;8798;-77
2021/12/21 18:01:54;;;;;;;;;;;;;;;;;;111980;1269;8876;-77
2021/12/21 18:04:27;;;;;;;;;;;;;;;;;;111943;1271;8397;-76
2021/12/21 18:06:57;;;;;;;;;;;;;;;;;;111933;1271;8787;-77
2021/12/21 18:09:25;;;;;;;;;;;;;;;;;;111982;1269;9681;-76
2021/12/21 18:11:54;;;;;;;;;;;;;;;;;;111954;1269;8224;-76
2021/12/21 18:14:29;;;;;;;;;;;;;;;;;;111936;1271;9777;-76
2021/12/21 18:17:02;;;;;;;;;;;;;;;;;;111925;1271;7970;-77
2021/12/21 18:19:30;;;;;;;;;;;;;;;;;;111944;1271;9693;-78
2021/12/21 18:21:59;;;;;;;;;;;;;;;;;;111948;1271;8798;-75
2021/12/21 18:24:27;;;;;;;;;;;;;;;;;;111940;1267;8358;-76
2021/12/21 18:26:59;;;;;;;;;;;;;;;;;;111940;1271;9700;-78
2021/12/21 18:29:30;;;;;;;;;;;;;;;;;;111918;1271;8045;-75
2021/12/21 18:31:59;;;;;;;;;;;;;;;;;;111908;1271;9360;-75
2021/12/21 18:34:28;;;;;;;;;;;;;;;;;;111933;1271;9691;-77
2021/12/21 18:37:02;;;;;;;;;;;;;;;;;;111719;1272;8420;-79
2021/12/21 18:39:33;;;;;;;;;;;;;;;;;;111929;1270;9707;-79